Time;durP1;ratioP1;P1;durP2;ratioP2;P2;SDS_P1;SDS_P2;PMS_P1;PMS_P2;Temp;Humidity;BMP_temperature;BMP_pressure;BME280_temperature;BME280_humidity;BME280_pressure;Samples;Min_cycle;Max_cycle;Signal;HPM_P1;HPM_P2
2022/02/23 00:01:59;;;;;;;;;;;0.50;99.90;;;;;;4169551;28;19924;-47
2022/02/23 00:04:01;;;;;;;;;;;0.40;99.90;;;;;;4165172;28;20024;-51
2022/02/23 00:06:03;;;;;;;;;;;0.30;99.90;;;;;;4174659;28;20020;-51
2022/02/23 00:08:05;;;;;;;;;;;0.30;99.90;;;;;;4175090;28;19970;-51
2022/02/23 00:10:08;;;;;;;;;;;0.20;99.90;;;;;;4175039;28;20289;-51
2022/02/23 00:12:10;;;;;;;;;;;0.20;99.90;;;;;;4172493;28;19933;-51
2022/02/23 00:14:12;;;;;;;;;;;0.10;99.90;;;;;;4179190;28;19929;-49
2022/02/23 00:16:15;;;;;;;;;;;0.20;99.90;;;;;;4170756;28;19940;-50
2022/02/23 00:18:17;;;;;;;;;;;0.20;99.90;;;;;;4173328;28;19929;-48
2022/02/23 00:20:19;;;;;;;;;;;0.10;99.90;;;;;;4169739;28;19931;-51
2022/02/23 00:22:22;;;;;;;;;;;0.00;99.90;;;;;;4177780;28;19937;-51
2022/02/23 00:24:24;;;;;;;;;;;-0.10;99.90;;;;;;4186740;28;20028;-52
2022/02/23 00:26:26;;;;;;;;;;;-0.10;99.90;;;;;;4171325;28;20372;-50
2022/02/23 00:28:28;;;;;;;;;;;-0.10;99.90;;;;;;4182702;28;19929;-51
2022/02/23 00:30:30;;;;;;;;;;;-0.10;99.90;;;;;;4166031;28;20011;-50
2022/02/23 00:32:32;;;;;;;;;;;-0.10;99.90;;;;;;4172731;28;19998;-51
2022/02/23 00:34:34;;;;;;;;;;;-0.10;99.90;;;;;;4172069;28;19955;-50
2022/02/23 00:36:36;;;;;;;;;;;-0.30;99.90;;;;;;4173847;28;19966;-49
2022/02/23 00:38:38;;;;;;;;;;;-0.20;99.90;;;;;;4169363;28;19978;-51
2022/02/23 00:40:41;;;;;;;;;;;-0.20;99.90;;;;;;4171435;28;19963;-49
2022/02/23 00:42:43;;;;;;;;;;;-0.20;99.90;;;;;;4176340;28;19924;-49
2022/02/23 00:44:45;;;;;;;;;;;-0.30;99.90;;;;;;4175815;28;20007;-49
2022/02/23 00:46:47;;;;;;;;;;;-0.30;99.90;;;;;;4169657;28;19925;-52
2022/02/23 00:48:49;;;;;;;;;;;-0.40;99.90;;;;;;4172850;28;20011;-50
2022/02/23 00:50:51;;;;;;;;;;;-0.50;99.90;;;;;;4172969;28;20015;-50
2022/02/23 00:52:53;;;;;;;;;;;-0.50;99.90;;;;;;4167435;28;20012;-51
2022/02/23 00:54:55;;;;;;;;;;;-0.60;99.90;;;;;;4172776;28;19929;-52
2022/02/23 00:56:57;;;;;;;;;;;-0.50;99.90;;;;;;4164340;28;19929;-51
2022/02/23 00:58:59;;;;;;;;;;;-0.50;99.90;;;;;;4175231;28;19967;-51
2022/02/23 01:01:01;;;;;;;;;;;-0.50;99.90;;;;;;4169178;28;20011;-51
2022/02/23 01:03:03;;;;;;;;;;;-0.40;99.90;;;;;;4163270;28;19929;-48
2022/02/23 01:05:05;;;;;;;;;;;-0.40;99.90;;;;;;4168869;28;19926;-51
2022/02/23 01:07:10;;;;;;;;;;;-0.30;99.90;;;;;;4169508;28;20442;-51
2022/02/23 01:09:12;;;;;;;;;;;-0.40;99.90;;;;;;4162962;28;19983;-51
2022/02/23 01:11:16;;;;;;;;;;;-0.40;99.90;;;;;;4176806;28;20360;-48
2022/02/23 01:13:18;;;;;;;;;;;-0.50;99.90;;;;;;4169408;28;20056;-50
2022/02/23 01:15:20;;;;;;;;;;;-0.70;99.90;;;;;;4174823;28;20407;-48
2022/02/23 01:17:23;;;;;;;;;;;-0.50;99.90;;;;;;4174658;28;20356;-51
2022/02/23 01:19:25;;;;;;;;;;;-0.40;99.90;;;;;;4175175;28;20379;-51
2022/02/23 01:21:28;;;;;;;;;;;-0.30;99.90;;;;;;4177878;28;19979;-49
2022/02/23 01:23:30;;;;;;;;;;;-0.20;99.90;;;;;;4178370;28;19935;-51
2022/02/23 01:25:34;;;;;;;;;;;-0.20;99.90;;;;;;4171279;28;20010;-49
2022/02/23 01:27:36;;;;;;;;;;;-0.10;99.90;;;;;;4163876;28;19987;-51
2022/02/23 01:36:23;;;;;;;;;;;-0.30;99.90;;;;;;4172257;28;20451;-51
2022/02/23 01:38:25;;;;;;;;;;;-0.40;99.90;;;;;;4170797;28;20609;-52
2022/02/23 01:40:27;;;;;;;;;;;-0.50;99.90;;;;;;4168739;28;20036;-50
2022/02/23 01:42:28;;;;;;;;;;;-0.60;99.90;;;;;;4169512;28;19925;-50
2022/02/23 01:44:30;;;;;;;;;;;-0.80;99.90;;;;;;4163137;28;20301;-50
2022/02/23 01:46:32;;;;;;;;;;;-1.00;99.90;;;;;;4166814;28;20003;-51
2022/02/23 01:48:34;;;;;;;;;;;-1.10;99.90;;;;;;4171365;28;19933;-51
2022/02/23 01:50:36;;;;;;;;;;;-1.10;99.90;;;;;;4179283;28;20019;-50
2022/02/23 01:52:38;;;;;;;;;;;-1.00;99.90;;;;;;4170551;28;19951;-50
2022/02/23 01:54:42;;;;;;;;;;;-0.90;99.90;;;;;;4166805;28;20012;-51
2022/02/23 01:56:44;;;;;;;;;;;-1.00;99.90;;;;;;4164626;28;19929;-52
2022/02/23 01:58:46;;;;;;;;;;;-1.00;99.90;;;;;;4174288;28;20515;-51
2022/02/23 02:00:48;;;;;;;;;;;-1.00;99.90;;;;;;4172002;28;19926;-50
2022/02/23 02:02:50;;;;;;;;;;;-1.10;99.90;;;;;;4162641;28;19925;-49
2022/02/23 02:04:52;;;;;;;;;;;-1.10;99.90;;;;;;4172919;28;19924;-51
2022/02/23 02:06:54;;;;;;;;;;;-1.20;99.90;;;;;;4167583;28;19933;-50
2022/02/23 02:08:56;;;;;;;;;;;-1.40;99.90;;;;;;4174134;28;20336;-50
2022/02/23 02:10:58;;;;;;;;;;;-1.20;99.90;;;;;;4173650;28;19971;-52
2022/02/23 02:13:00;;;;;;;;;;;-1.10;99.90;;;;;;4168964;28;19925;-51
2022/02/23 02:15:03;;;;;;;;;;;-1.10;99.90;;;;;;4172484;28;19952;-51
2022/02/23 02:17:05;;;;;;;;;;;-1.10;99.90;;;;;;4169928;28;19929;-51
2022/02/23 02:19:08;;;;;;;;;;;-1.10;99.90;;;;;;4163591;28;19925;-51
2022/02/23 02:21:10;;;;;;;;;;;-1.20;99.90;;;;;;4177701;28;19978;-49
2022/02/23 02:23:12;;;;;;;;;;;-1.30;99.90;;;;;;4172598;28;19951;-51
2022/02/23 02:25:13;;;;;;;;;;;-1.40;99.90;;;;;;4164478;28;20382;-50
2022/02/23 02:27:16;;;;;;;;;;;-1.50;99.90;;;;;;4166402;28;19998;-51
2022/02/23 02:29:18;;;;;;;;;;;-1.50;99.90;;;;;;4169023;28;19924;-49
2022/02/23 02:31:20;;;;;;;;;;;-1.50;99.90;;;;;;4167140;28;19972;-51
2022/02/23 02:33:22;;;;;;;;;;;-1.50;99.90;;;;;;4175488;28;20337;-51
2022/02/23 02:35:24;;;;;;;;;;;-1.50;99.90;;;;;;4171196;28;19932;-49
2022/02/23 02:37:26;;;;;;;;;;;-1.40;99.90;;;;;;4173578;28;20507;-52
2022/02/23 02:39:29;;;;;;;;;;;-1.40;99.90;;;;;;4171551;28;19928;-50
2022/02/23 02:41:32;;;;;;;;;;;-1.30;99.90;;;;;;4171296;28;19978;-51
2022/02/23 02:43:34;;;;;;;;;;;-1.40;99.90;;;;;;4176009;28;19982;-48
2022/02/23 02:45:36;;;;;;;;;;;-1.30;99.90;;;;;;4172317;28;19929;-50
2022/02/23 02:47:37;;;;;;;;;;;-1.40;99.90;;;;;;4165914;28;19960;-51
2022/02/23 02:49:39;;;;;;;;;;;-1.30;99.90;;;;;;4166168;28;19925;-52
2022/02/23 02:51:41;;;;;;;;;;;-1.30;99.90;;;;;;4171293;28;19976;-51
2022/02/23 02:53:43;;;;;;;;;;;-1.30;99.90;;;;;;4176118;28;19929;-50
2022/02/23 02:55:45;;;;;;;;;;;-1.40;99.90;;;;;;4167810;28;20389;-50
2022/02/23 02:57:47;;;;;;;;;;;-1.30;99.90;;;;;;4167145;28;20015;-50
2022/02/23 02:59:49;;;;;;;;;;;-1.30;99.90;;;;;;4168342;28;19924;-50
2022/02/23 03:01:51;;;;;;;;;;;-1.30;99.90;;;;;;4180705;28;19976;-51
2022/02/23 03:03:53;;;;;;;;;;;-1.30;99.90;;;;;;4167751;28;19967;-51
2022/02/23 03:05:55;;;;;;;;;;;-1.40;99.90;;;;;;4169144;28;19928;-51
2022/02/23 03:07:57;;;;;;;;;;;-1.40;99.90;;;;;;4174560;28;19932;-49
2022/02/23 03:10:02;;;;;;;;;;;-1.40;99.90;;;;;;4170974;28;19986;-48
2022/02/23 03:12:05;;;;;;;;;;;-1.40;99.90;;;;;;4175054;28;20308;-51
2022/02/23 03:14:07;;;;;;;;;;;-1.50;99.90;;;;;;4172969;28;20415;-51
2022/02/23 03:16:10;;;;;;;;;;;-1.50;99.90;;;;;;4166760;28;19932;-50
2022/02/23 03:18:12;;;;;;;;;;;-1.30;99.90;;;;;;4171572;28;19929;-51
2022/02/23 03:20:14;;;;;;;;;;;-1.40;99.90;;;;;;4175041;28;19924;-50
2022/02/23 03:22:16;;;;;;;;;;;-1.50;99.90;;;;;;4174592;28;19959;-51
2022/02/23 03:24:17;;;;;;;;;;;-1.40;99.90;;;;;;4171792;28;19972;-48
2022/02/23 03:26:19;;;;;;;;;;;-1.40;99.90;;;;;;4170174;28;19925;-51
2022/02/23 03:28:21;;;;;;;;;;;-1.50;99.90;;;;;;4172852;28;19933;-51
2022/02/23 03:30:23;;;;;;;;;;;-1.50;99.90;;;;;;4169845;28;19964;-51
2022/02/23 03:32:25;;;;;;;;;;;-1.50;99.90;;;;;;4170713;28;19929;-51
2022/02/23 03:34:27;;;;;;;;;;;-1.60;99.90;;;;;;4169947;28;20345;-50
2022/02/23 03:36:30;;;;;;;;;;;-1.80;99.90;;;;;;4180610;28;19924;-51
2022/02/23 03:38:32;;;;;;;;;;;-1.90;99.90;;;;;;4176108;28;19929;-51
2022/02/23 03:40:34;;;;;;;;;;;-2.00;99.90;;;;;;4169843;28;19975;-51
2022/02/23 03:42:36;;;;;;;;;;;-2.10;99.90;;;;;;4175336;28;20389;-48
2022/02/23 03:44:38;;;;;;;;;;;-2.10;99.90;;;;;;4175937;28;19936;-49
2022/02/23 03:46:40;;;;;;;;;;;-2.20;99.90;;;;;;4172743;28;19926;-50
2022/02/23 03:48:42;;;;;;;;;;;-2.20;99.90;;;;;;4178521;28;19971;-51
2022/02/23 03:50:44;;;;;;;;;;;-2.10;99.90;;;;;;4169383;28;19932;-48
2022/02/23 03:52:46;;;;;;;;;;;-2.10;99.90;;;;;;4168169;28;19932;-48
2022/02/23 03:54:48;;;;;;;;;;;-2.20;99.90;;;;;;4175924;28;19960;-50
2022/02/23 03:56:50;;;;;;;;;;;-2.20;99.90;;;;;;4175752;28;19979;-48
2022/02/23 03:58:52;;;;;;;;;;;-2.20;99.90;;;;;;4178097;28;19992;-50
2022/02/23 04:00:54;;;;;;;;;;;-2.20;99.90;;;;;;4173050;28;20102;-51
2022/02/23 04:02:56;;;;;;;;;;;-2.20;99.90;;;;;;4169922;28;21402;-51
2022/02/23 04:04:57;;;;;;;;;;;-2.20;99.90;;;;;;4167632;28;20428;-51
2022/02/23 04:06:59;;;;;;;;;;;-2.10;99.90;;;;;;4170392;28;19953;-49
2022/02/23 04:09:03;;;;;;;;;;;-2.10;99.90;;;;;;4176787;28;19932;-47
2022/02/23 04:11:05;;;;;;;;;;;-2.20;99.90;;;;;;4172717;28;20667;-47
2022/02/23 04:13:07;;;;;;;;;;;-2.10;99.90;;;;;;4177163;28;19931;-48
2022/02/23 04:15:09;;;;;;;;;;;-2.00;99.90;;;;;;4168771;28;19971;-47
2022/02/23 04:17:11;;;;;;;;;;;-2.00;99.90;;;;;;4168095;28;19933;-48
2022/02/23 04:19:13;;;;;;;;;;;-1.90;99.90;;;;;;4173833;28;19929;-46
2022/02/23 04:21:15;;;;;;;;;;;-1.90;99.90;;;;;;4180538;28;19975;-51
2022/02/23 04:23:17;;;;;;;;;;;-1.90;99.90;;;;;;4181787;28;19925;-51
2022/02/23 04:25:19;;;;;;;;;;;-1.90;99.90;;;;;;4174003;28;19952;-49
2022/02/23 04:27:22;;;;;;;;;;;-1.90;99.90;;;;;;4177217;28;20019;-50
2022/02/23 04:29:24;;;;;;;;;;;-1.90;99.90;;;;;;4180184;28;19925;-49
2022/02/23 04:31:26;;;;;;;;;;;-1.90;99.90;;;;;;4173196;28;19929;-48
2022/02/23 04:33:28;;;;;;;;;;;-1.80;99.90;;;;;;4170934;28;19936;-49
2022/02/23 04:35:30;;;;;;;;;;;-1.90;99.90;;;;;;4166343;28;19929;-50
2022/02/23 04:37:32;;;;;;;;;;;-1.90;99.90;;;;;;4172859;28;19929;-49
2022/02/23 04:39:34;;;;;;;;;;;-1.90;99.90;;;;;;4165430;28;19937;-51
2022/02/23 04:41:36;;;;;;;;;;;-2.00;99.90;;;;;;4185477;28;19978;-49
2022/02/23 04:43:38;;;;;;;;;;;-2.10;99.90;;;;;;4169919;28;19933;-51
2022/02/23 04:45:40;;;;;;;;;;;-2.30;99.90;;;;;;4179950;28;19964;-51
2022/02/23 04:47:42;;;;;;;;;;;-2.30;99.90;;;;;;4169171;28;19936;-50
2022/02/23 04:49:44;;;;;;;;;;;-2.30;99.90;;;;;;4166190;28;20380;-50
2022/02/23 04:51:46;;;;;;;;;;;-2.40;99.90;;;;;;4176394;28;19925;-49
2022/02/23 04:53:48;;;;;;;;;;;-2.30;99.90;;;;;;4179427;28;20058;-51
2022/02/23 04:55:49;;;;;;;;;;;-2.20;99.90;;;;;;4175270;28;20389;-49
2022/02/23 04:57:51;;;;;;;;;;;-2.20;99.90;;;;;;4169242;28;19925;-51
2022/02/23 04:59:54;;;;;;;;;;;-2.10;99.90;;;;;;4169984;28;19928;-47
2022/02/23 05:01:56;;;;;;;;;;;-2.20;99.90;;;;;;4164467;28;19925;-49
2022/02/23 05:03:58;;;;;;;;;;;-2.10;99.90;;;;;;4168760;28;20309;-50
2022/02/23 05:06:00;;;;;;;;;;;-2.10;99.90;;;;;;4170800;28;19932;-50
2022/02/23 05:08:01;;;;;;;;;;;-2.10;99.90;;;;;;4169720;28;19928;-49
2022/02/23 05:10:04;;;;;;;;;;;-2.20;99.90;;;;;;4177413;28;19928;-50
2022/02/23 05:12:06;;;;;;;;;;;-2.20;99.90;;;;;;4166409;28;20058;-48
2022/02/23 05:14:08;;;;;;;;;;;-2.20;99.90;;;;;;4162851;28;20381;-47
2022/02/23 05:16:10;;;;;;;;;;;-2.30;99.90;;;;;;4177318;28;19936;-49
2022/02/23 05:18:12;;;;;;;;;;;-2.30;99.90;;;;;;4169515;28;19925;-50
2022/02/23 05:20:14;;;;;;;;;;;-2.40;99.90;;;;;;4162751;28;19929;-50
2022/02/23 05:22:16;;;;;;;;;;;-2.40;99.90;;;;;;4171445;28;19925;-51
2022/02/23 05:24:18;;;;;;;;;;;-2.40;99.90;;;;;;4166955;28;19924;-49
2022/02/23 05:26:20;;;;;;;;;;;-2.50;99.90;;;;;;4168734;28;19929;-51
2022/02/23 05:28:22;;;;;;;;;;;-2.50;99.90;;;;;;4169829;28;20329;-51
2022/02/23 05:30:25;;;;;;;;;;;-2.50;99.90;;;;;;4165222;28;19933;-50
2022/02/23 05:32:28;;;;;;;;;;;-2.40;99.90;;;;;;4173630;28;19929;-50
2022/02/23 05:34:29;;;;;;;;;;;-2.30;99.90;;;;;;4170402;28;19936;-50
2022/02/23 05:36:31;;;;;;;;;;;-2.30;99.90;;;;;;4166104;28;19931;-50
2022/02/23 05:38:33;;;;;;;;;;;-2.30;99.90;;;;;;4167058;28;19925;-51
2022/02/23 05:40:35;;;;;;;;;;;-2.20;99.90;;;;;;4168442;28;19929;-49
2022/02/23 05:42:37;;;;;;;;;;;-2.10;99.90;;;;;;4164741;28;19929;-50
2022/02/23 05:44:39;;;;;;;;;;;-2.00;99.90;;;;;;4170543;28;19925;-48
2022/02/23 05:46:43;;;;;;;;;;;-2.10;99.90;;;;;;4173935;28;19931;-51
2022/02/23 05:48:45;;;;;;;;;;;-2.20;99.90;;;;;;4162992;28;19995;-51
2022/02/23 05:50:48;;;;;;;;;;;-2.30;99.90;;;;;;4175448;28;19924;-50
2022/02/23 05:52:49;;;;;;;;;;;-2.30;99.90;;;;;;4175865;28;20046;-49
2022/02/23 05:54:52;;;;;;;;;;;-2.30;99.90;;;;;;4176487;28;19932;-48
2022/02/23 05:56:54;;;;;;;;;;;-2.40;99.90;;;;;;4164469;28;19948;-50
2022/02/23 05:58:57;;;;;;;;;;;-2.40;99.90;;;;;;4170413;28;20497;-49
2022/02/23 06:00:59;;;;;;;;;;;-2.50;99.90;;;;;;4171251;28;19932;-50
2022/02/23 06:03:01;;;;;;;;;;;-2.60;99.90;;;;;;4173759;28;19951;-49
2022/02/23 06:05:03;;;;;;;;;;;-2.50;99.90;;;;;;4168191;28;19940;-48
2022/02/23 06:07:05;;;;;;;;;;;-2.60;99.90;;;;;;4173998;28;19933;-49
2022/02/23 06:09:07;;;;;;;;;;;-2.60;99.90;;;;;;4169338;28;20407;-51
2022/02/23 06:11:09;;;;;;;;;;;-2.50;99.90;;;;;;4175070;28;19925;-51
2022/02/23 06:13:11;;;;;;;;;;;-2.50;99.90;;;;;;4167720;28;19929;-50
2022/02/23 06:15:13;;;;;;;;;;;-2.50;99.90;;;;;;4169986;28;19929;-49
2022/02/23 06:17:15;;;;;;;;;;;-2.60;99.90;;;;;;4172376;28;20289;-49
2022/02/23 06:19:17;;;;;;;;;;;-2.60;99.90;;;;;;4177414;28;20037;-50
2022/02/23 06:21:18;;;;;;;;;;;-2.60;99.90;;;;;;4174508;28;19972;-50
2022/02/23 06:23:21;;;;;;;;;;;-2.60;99.90;;;;;;4172797;28;19932;-51
2022/02/23 06:25:23;;;;;;;;;;;-2.60;99.90;;;;;;4169589;28;19925;-49
2022/02/23 06:27:30;;;;;;;;;;;-2.70;99.90;;;;;;4173174;28;19935;-49
2022/02/23 06:29:31;;;;;;;;;;;-2.70;99.90;;;;;;4169907;28;20388;-48
2022/02/23 06:31:34;;;;;;;;;;;-2.70;99.90;;;;;;4177494;28;19925;-50
2022/02/23 06:33:38;;;;;;;;;;;-2.70;99.90;;;;;;4173120;28;20497;-50
2022/02/23 06:35:40;;;;;;;;;;;-2.70;99.90;;;;;;4170802;28;19925;-51
2022/02/23 06:37:42;;;;;;;;;;;-2.70;99.90;;;;;;4161946;28;19976;-48
2022/02/23 06:39:44;;;;;;;;;;;-2.70;99.90;;;;;;4174330;28;19936;-50
2022/02/23 06:41:47;;;;;;;;;;;-2.60;99.90;;;;;;4161391;28;19940;-50
2022/02/23 06:43:48;;;;;;;;;;;-2.60;99.90;;;;;;4176512;28;19929;-50
2022/02/23 06:45:50;;;;;;;;;;;-2.60;99.90;;;;;;4173635;28;20393;-51
2022/02/23 06:47:52;;;;;;;;;;;-2.50;99.90;;;;;;4163381;28;19932;-50
2022/02/23 06:49:54;;;;;;;;;;;-2.50;99.90;;;;;;4166534;28;19925;-49
2022/02/23 06:51:58;;;;;;;;;;;-2.40;99.90;;;;;;4169031;28;19939;-50
2022/02/23 06:54:02;;;;;;;;;;;-2.40;99.90;;;;;;4167737;28;19948;-50
2022/02/23 06:56:04;;;;;;;;;;;-2.40;99.90;;;;;;4171514;28;20318;-48
2022/02/23 06:58:06;;;;;;;;;;;-2.30;99.90;;;;;;4166734;28;20012;-49
2022/02/23 07:00:11;;;;;;;;;;;-2.30;99.90;;;;;;4172565;28;19925;-48
2022/02/23 07:02:13;;;;;;;;;;;-2.30;99.90;;;;;;4174449;28;20677;-49
2022/02/23 07:04:15;;;;;;;;;;;-2.20;99.90;;;;;;4171215;28;19933;-49
2022/02/23 07:06:17;;;;;;;;;;;-2.20;99.90;;;;;;4166242;28;19928;-50
2022/02/23 07:08:19;;;;;;;;;;;-2.20;99.90;;;;;;4174311;28;20489;-51
2022/02/23 07:10:25;;;;;;;;;;;-2.10;99.90;;;;;;4177995;28;19925;-49
2022/02/23 07:12:27;;;;;;;;;;;-2.10;99.90;;;;;;4179378;28;19939;-48
2022/02/23 07:14:29;;;;;;;;;;;-2.10;99.90;;;;;;4176935;28;19955;-51
2022/02/23 07:16:31;;;;;;;;;;;-1.90;99.90;;;;;;4178097;28;19940;-50
2022/02/23 07:18:33;;;;;;;;;;;-1.80;99.90;;;;;;4178806;28;19936;-50
2022/02/23 07:20:34;;;;;;;;;;;-1.70;99.90;;;;;;4174834;28;19929;-50
2022/02/23 07:22:36;;;;;;;;;;;-1.50;99.90;;;;;;4180674;28;19928;-50
2022/02/23 07:24:38;;;;;;;;;;;-1.30;99.90;;;;;;4170445;28;19931;-51
2022/02/23 07:26:40;;;;;;;;;;;-1.10;99.90;;;;;;4171330;28;19935;-50
2022/02/23 07:28:44;;;;;;;;;;;-1.00;99.90;;;;;;4178370;28;19925;-50
2022/02/23 07:30:46;;;;;;;;;;;-1.00;99.90;;;;;;4170863;28;19951;-49
2022/02/23 07:32:48;;;;;;;;;;;-0.90;99.90;;;;;;4169655;28;19971;-51
2022/02/23 07:34:50;;;;;;;;;;;-0.90;99.90;;;;;;4164547;28;19936;-51
2022/02/23 07:36:52;;;;;;;;;;;-0.80;99.90;;;;;;4176806;28;20411;-51
2022/02/23 07:38:54;;;;;;;;;;;-0.70;99.90;;;;;;4176372;28;19925;-50
2022/02/23 07:40:56;;;;;;;;;;;-0.70;99.90;;;;;;4171466;28;19932;-51
2022/02/23 07:43:18;;;;;;;;;;;-0.60;99.90;;;;;;4171491;28;20030;-50
2022/02/23 07:45:20;;;;;;;;;;;-0.60;99.90;;;;;;4164092;28;19932;-50
2022/02/23 07:47:21;;;;;;;;;;;-0.50;99.90;;;;;;4166872;28;20397;-51
2022/02/23 07:49:23;;;;;;;;;;;-0.50;99.90;;;;;;4164300;28;20042;-49
2022/02/23 07:51:26;;;;;;;;;;;-0.50;99.90;;;;;;4166401;28;19928;-50
2022/02/23 07:53:28;;;;;;;;;;;-0.40;99.90;;;;;;4175154;28;20015;-49
2022/02/23 07:55:30;;;;;;;;;;;-0.40;99.90;;;;;;4169055;28;19925;-48
2022/02/23 07:57:31;;;;;;;;;;;-0.30;99.90;;;;;;4164448;28;20351;-51
2022/02/23 07:59:33;;;;;;;;;;;-0.20;99.90;;;;;;4169333;28;19932;-50
2022/02/23 08:01:39;;;;;;;;;;;0.00;99.90;;;;;;4176697;28;19932;-50
2022/02/23 08:03:45;;;;;;;;;;;0.10;99.90;;;;;;4179091;28;20297;-48
2022/02/23 08:05:48;;;;;;;;;;;0.30;99.90;;;;;;4178801;28;19929;-50
2022/02/23 08:07:50;;;;;;;;;;;0.40;99.90;;;;;;4177676;28;19936;-51
2022/02/23 08:09:52;;;;;;;;;;;0.60;99.90;;;;;;4179423;28;19979;-50
2022/02/23 08:11:54;;;;;;;;;;;0.70;99.90;;;;;;4177547;28;19955;-50
2022/02/23 08:13:59;;;;;;;;;;;0.90;99.90;;;;;;4177226;28;20517;-48
2022/02/23 08:20:43;;;;;;;;;;;1.40;99.90;;;;;;4170450;28;19961;-48
2022/02/23 08:22:45;;;;;;;;;;;1.40;99.90;;;;;;4168270;28;19925;-48
2022/02/23 08:24:48;;;;;;;;;;;1.40;99.90;;;;;;4179842;28;19929;-48
2022/02/23 08:26:50;;;;;;;;;;;1.50;99.90;;;;;;4175108;28;20379;-48
2022/02/23 08:28:52;;;;;;;;;;;1.60;99.90;;;;;;4167267;28;19924;-50
2022/02/23 08:30:54;;;;;;;;;;;1.60;99.90;;;;;;4179020;28;20024;-50
2022/02/23 08:33:00;;;;;;;;;;;1.60;99.90;;;;;;4175654;28;19931;-50
2022/02/23 08:35:19;;;;;;;;;;;1.80;99.90;;;;;;4176192;28;19933;-50
2022/02/23 08:37:21;;;;;;;;;;;2.00;99.90;;;;;;4168198;28;19936;-51
2022/02/23 08:39:23;;;;;;;;;;;2.30;99.90;;;;;;4175671;28;19928;-50
2022/02/23 08:41:25;;;;;;;;;;;2.50;99.90;;;;;;4170202;28;19933;-51
2022/02/23 08:43:47;;;;;;;;;;;2.70;99.90;;;;;;4175628;28;20282;-51
2022/02/23 08:45:49;;;;;;;;;;;2.90;99.90;;;;;;4177971;28;20419;-51
2022/02/23 08:47:51;;;;;;;;;;;3.20;99.90;;;;;;4177848;28;20031;-51
2022/02/23 08:49:52;;;;;;;;;;;3.40;99.90;;;;;;4169510;28;19979;-51
2022/02/23 08:51:54;;;;;;;;;;;3.50;99.90;;;;;;4176150;28;19928;-51
2022/02/23 08:53:56;;;;;;;;;;;3.60;99.90;;;;;;4168243;28;19951;-51
2022/02/23 08:55:59;;;;;;;;;;;3.70;99.90;;;;;;4179476;28;19935;-51
2022/02/23 08:58:05;;;;;;;;;;;3.80;99.90;;;;;;4175229;28;20304;-50
2022/02/23 09:00:08;;;;;;;;;;;4.00;99.90;;;;;;4176797;28;19929;-51
2022/02/23 09:02:09;;;;;;;;;;;4.10;99.90;;;;;;4179702;28;20364;-51
2022/02/23 09:04:12;;;;;;;;;;;4.20;99.90;;;;;;4177592;28;20035;-51
2022/02/23 09:06:14;;;;;;;;;;;4.20;99.90;;;;;;4170278;28;19925;-51
2022/02/23 09:08:16;;;;;;;;;;;4.30;99.90;;;;;;4178458;28;19925;-52
2022/02/23 09:10:17;;;;;;;;;;;4.30;99.90;;;;;;4177211;28;19955;-52
2022/02/23 09:12:23;;;;;;;;;;;4.50;99.90;;;;;;4177914;28;19929;-51
2022/02/23 09:14:25;;;;;;;;;;;4.50;99.90;;;;;;4178887;28;19925;-50
2022/02/23 09:16:27;;;;;;;;;;;4.70;99.90;;;;;;4176548;28;19929;-50
2022/02/23 09:18:29;;;;;;;;;;;4.90;99.90;;;;;;4172002;28;20325;-51
2022/02/23 09:20:33;;;;;;;;;;;5.00;99.90;;;;;;4178084;28;19936;-51
2022/02/23 09:22:35;;;;;;;;;;;5.10;99.90;;;;;;4173784;28;19935;-50
2022/02/23 09:24:38;;;;;;;;;;;5.30;99.90;;;;;;4178503;28;19933;-51
2022/02/23 09:26:41;;;;;;;;;;;5.30;99.90;;;;;;4179270;28;19936;-48
2022/02/23 09:28:43;;;;;;;;;;;5.40;99.90;;;;;;4175889;28;19928;-51
2022/02/23 09:30:45;;;;;;;;;;;5.60;99.90;;;;;;4176488;28;19932;-52
2022/02/23 09:32:50;;;;;;;;;;;5.80;99.90;;;;;;4178039;28;19928;-52
2022/02/23 09:34:52;;;;;;;;;;;5.90;99.90;;;;;;4177174;28;19935;-49
2022/02/23 09:36:54;;;;;;;;;;;6.10;99.90;;;;;;4177575;28;19955;-52
2022/02/23 09:38:56;;;;;;;;;;;6.30;99.90;;;;;;4178943;28;19925;-52
2022/02/23 09:40:59;;;;;;;;;;;6.50;99.90;;;;;;4175937;28;20334;-51
2022/02/23 09:43:00;;;;;;;;;;;7.10;99.90;;;;;;4177921;28;20391;-52
2022/02/23 09:45:03;;;;;;;;;;;7.50;99.90;;;;;;4178759;28;19955;-50
2022/02/23 09:47:14;;;;;;;;;;;7.80;99.90;;;;;;4176760;28;19929;-51
2022/02/23 09:49:16;;;;;;;;;;;7.80;99.90;;;;;;4175955;28;19940;-52
2022/02/23 09:51:19;;;;;;;;;;;7.90;99.90;;;;;;4178047;28;19932;-50
2022/02/23 09:53:21;;;;;;;;;;;7.90;99.90;;;;;;4176711;28;19928;-51
2022/02/23 09:55:23;;;;;;;;;;;8.00;99.90;;;;;;4175273;28;19937;-52
2022/02/23 09:57:26;;;;;;;;;;;8.40;99.90;;;;;;4177502;28;19932;-51
2022/02/23 09:59:27;;;;;;;;;;;8.60;99.70;;;;;;4177019;28;19925;-53
2022/02/23 10:01:30;;;;;;;;;;;8.70;99.30;;;;;;4177750;28;19925;-53
2022/02/23 10:03:34;;;;;;;;;;;8.70;98.70;;;;;;4177363;28;20020;-52
2022/02/23 10:05:37;;;;;;;;;;;8.70;97.90;;;;;;4175647;28;19925;-52
2022/02/23 10:07:40;;;;;;;;;;;8.80;97.90;;;;;;4178289;28;19931;-52
2022/02/23 10:09:44;;;;;;;;;;;9.00;97.40;;;;;;4176917;28;20375;-51
2022/02/23 10:11:48;;;;;;;;;;;9.10;97.40;;;;;;4174997;28;19935;-52
2022/02/23 10:13:51;;;;;;;;;;;9.30;97.00;;;;;;4163505;28;20024;-54
2022/02/23 10:15:53;;;;;;;;;;;9.50;95.60;;;;;;4177944;28;19956;-52
2022/02/23 10:18:19;;;;;;;;;;;9.70;96.00;;;;;;4173233;28;19929;-52
2022/02/23 10:20:21;;;;;;;;;;;10.30;97.10;;;;;;4165305;28;19932;-53
2022/02/23 10:22:23;;;;;;;;;;;11.00;97.70;;;;;;4178373;28;19925;-53
2022/02/23 10:24:26;;;;;;;;;;;11.00;94.10;;;;;;4174876;28;19929;-53
2022/02/23 10:26:31;;;;;;;;;;;10.80;93.10;;;;;;4165376;28;19931;-51
2022/02/23 10:28:34;;;;;;;;;;;10.90;92.90;;;;;;4177148;28;19933;-53
2022/02/23 10:30:44;;;;;;;;;;;11.00;94.30;;;;;;4175471;28;20488;-53
2022/02/23 10:32:46;;;;;;;;;;;11.30;94.50;;;;;;4165402;28;19929;-53
2022/02/23 10:34:48;;;;;;;;;;;11.70;93.10;;;;;;4177722;28;19929;-54
2022/02/23 10:37:22;;;;;;;;;;;12.00;94.60;;;;;;4180107;28;19928;-54
2022/02/23 10:39:33;;;;;;;;;;;12.20;92.50;;;;;;4145752;28;19932;-54
2022/02/23 10:41:37;;;;;;;;;;;12.10;90.30;;;;;;4144723;28;19930;-53
2022/02/23 10:43:45;;;;;;;;;;;12.30;91.00;;;;;;4145993;28;19925;-53
2022/02/23 10:45:51;;;;;;;;;;;12.90;91.90;;;;;;4139398;28;19933;-53
2022/02/23 10:47:54;;;;;;;;;;;13.30;91.60;;;;;;4138254;28;20562;-53
2022/02/23 10:49:59;;;;;;;;;;;13.60;90.90;;;;;;4135133;28;20554;-51
2022/02/23 10:52:06;;;;;;;;;;;13.60;88.00;;;;;;4137939;28;20301;-53
2022/02/23 10:54:09;;;;;;;;;;;13.70;85.60;;;;;;4146565;28;19929;-52
2022/02/23 10:56:21;;;;;;;;;;;14.00;87.80;;;;;;4136654;28;19936;-52
2022/02/23 10:58:26;;;;;;;;;;;13.80;82.00;;;;;;4135018;28;20341;-53
2022/02/23 11:00:31;;;;;;;;;;;14.30;89.30;;;;;;4146744;28;19936;-53
2022/02/23 11:02:33;;;;;;;;;;;14.20;83.40;;;;;;4145639;28;20058;-53
2022/02/23 11:04:34;;;;;;;;;;;14.10;83.00;;;;;;4143279;28;19952;-52
2022/02/23 11:06:37;;;;;;;;;;;14.40;80.20;;;;;;4146216;28;19980;-53
2022/02/23 11:08:39;;;;;;;;;;;14.50;81.90;;;;;;4145554;28;19973;-53
2022/02/23 11:10:42;;;;;;;;;;;14.60;77.40;;;;;;4145213;28;20278;-53
2022/02/23 11:12:45;;;;;;;;;;;14.40;77.30;;;;;;4134428;28;19925;-53
2022/02/23 11:14:47;;;;;;;;;;;14.90;81.20;;;;;;4136789;28;19978;-53
2022/02/23 11:16:50;;;;;;;;;;;15.20;76.40;;;;;;4167819;28;19925;-53
2022/02/23 11:18:52;;;;;;;;;;;15.10;77.10;;;;;;4179359;28;19935;-52
2022/02/23 11:20:57;;;;;;;;;;;15.00;74.20;;;;;;4179099;28;20516;-54
2022/02/23 11:23:01;;;;;;;;;;;15.10;73.30;;;;;;4179203;28;19925;-52
2022/02/23 11:25:04;;;;;;;;;;;15.50;75.20;;;;;;4180364;28;19925;-54
2022/02/23 11:27:07;;;;;;;;;;;15.90;74.10;;;;;;4177735;28;19932;-54
2022/02/23 11:29:19;;;;;;;;;;;15.90;70.30;;;;;;4177129;28;19929;-54
2022/02/23 11:31:21;;;;;;;;;;;15.40;69.90;;;;;;4180635;28;20436;-53
2022/02/23 11:33:42;;;;;;;;;;;15.30;69.20;;;;;;4179158;28;20350;-52
2022/02/23 11:35:46;;;;;;;;;;;15.50;73.20;;;;;;4178793;28;20407;-53
2022/02/23 11:37:54;;;;;;;;;;;15.70;68.80;;;;;;4180564;28;19933;-53
2022/02/23 11:39:56;;;;;;;;;;;15.70;69.00;;;;;;4179967;28;19933;-54
2022/02/23 11:42:00;;;;;;;;;;;15.50;66.10;;;;;;4177332;28;19945;-53
2022/02/23 11:44:03;;;;;;;;;;;15.50;69.20;;;;;;4165562;28;19969;-53
2022/02/23 11:46:06;;;;;;;;;;;15.40;67.10;;;;;;4178322;28;19925;-53
2022/02/23 11:48:08;;;;;;;;;;;15.50;66.30;;;;;;4169370;28;20023;-54
2022/02/23 11:50:11;;;;;;;;;;;15.80;67.50;;;;;;4164699;28;19929;-53
2022/02/23 11:52:14;;;;;;;;;;;15.80;65.70;;;;;;4173654;28;20408;-54
2022/02/23 11:54:36;;;;;;;;;;;15.90;67.20;;;;;;4174904;28;19980;-53
2022/02/23 11:56:45;;;;;;;;;;;16.00;65.70;;;;;;4178852;28;19943;-54
2022/02/23 11:58:53;;;;;;;;;;;16.20;67.20;;;;;;4179199;28;20044;-54
2022/02/23 12:00:56;;;;;;;;;;;16.30;66.20;;;;;;4177990;28;19924;-53
2022/02/23 12:03:00;;;;;;;;;;;16.30;66.10;;;;;;4175198;28;19928;-53
2022/02/23 12:05:02;;;;;;;;;;;16.40;68.40;;;;;;4173180;28;19925;-54
2022/02/23 12:07:08;;;;;;;;;;;16.30;67.40;;;;;;4175771;28;19972;-52
2022/02/23 12:09:09;;;;;;;;;;;16.60;66.50;;;;;;4178585;28;19936;-53